sensor_id;sensor_type;location;lat;lon;timestamp;P1;durP1;ratioP1;P2;durP2;ratioP2
24547;SDS011;12713;51.624;4.924;2022-11-20T00:02:19;22.13;;;15.00;;
24547;SDS011;12713;51.624;4.924;2022-11-20T00:04:45;21.60;;;14.68;;
24547;SDS011;12713;51.624;4.924;2022-11-20T00:07:11;21.05;;;15.35;;
24547;SDS011;12713;51.624;4.924;2022-11-20T00:09:37;24.20;;;15.90;;
24547;SDS011;12713;51.624;4.924;2022-11-20T00:12:03;23.33;;;15.52;;
24547;SDS011;12713;51.624;4.924;2022-11-20T00:14:29;23.33;;;16.25;;
24547;SDS011;12713;51.624;4.924;2022-11-20T00:16:55;22.05;;;14.57;;
24547;SDS011;12713;51.624;4.924;2022-11-20T00:19:21;21.75;;;15.30;;
24547;SDS011;12713;51.624;4.924;2022-11-20T00:21:47;21.05;;;14.63;;
24547;SDS011;12713;51.624;4.924;2022-11-20T00:24:16;23.35;;;16.50;;
24547;SDS011;12713;51.624;4.924;2022-11-20T00:26:42;19.48;;;15.00;;
24547;SDS011;12713;51.624;4.924;2022-11-20T00:29:08;24.45;;;16.02;;
24547;SDS011;12713;51.624;4.924;2022-11-20T00:31:35;23.77;;;16.42;;
24547;SDS011;12713;51.624;4.924;2022-11-20T00:34:01;20.17;;;14.70;;
24547;SDS011;12713;51.624;4.924;2022-11-20T00:36:28;22.05;;;15.68;;
24547;SDS011;12713;51.624;4.924;2022-11-20T00:38:55;22.85;;;15.23;;
24547;SDS011;12713;51.624;4.924;2022-11-20T00:41:21;23.60;;;15.65;;
24547;SDS011;12713;51.624;4.924;2022-11-20T00:43:48;23.83;;;15.32;;
24547;SDS011;12713;51.624;4.924;2022-11-20T00:46:18;23.52;;;16.40;;
24547;SDS011;12713;51.624;4.924;2022-11-20T00:48:44;20.90;;;15.35;;
24547;SDS011;12713;51.624;4.924;2022-11-20T00:51:10;24.58;;;15.98;;
24547;SDS011;12713;51.624;4.924;2022-11-20T00:53:37;21.55;;;15.80;;
24547;SDS011;12713;51.624;4.924;2022-11-20T00:56:07;25.40;;;17.42;;
24547;SDS011;12713;51.624;4.924;2022-11-20T00:58:34;26.58;;;16.75;;
24547;SDS011;12713;51.624;4.924;2022-11-20T01:01:07;23.48;;;15.82;;
24547;SDS011;12713;51.624;4.924;2022-11-20T01:03:34;23.33;;;16.08;;
24547;SDS011;12713;51.624;4.924;2022-11-20T01:06:01;22.27;;;14.73;;
24547;SDS011;12713;51.624;4.924;2022-11-20T01:08:31;23.30;;;16.00;;
24547;SDS011;12713;51.624;4.924;2022-11-20T01:11:08;24.67;;;16.55;;
24547;SDS011;12713;51.624;4.924;2022-11-20T01:13:35;24.73;;;15.88;;
24547;SDS011;12713;51.624;4.924;2022-11-20T01:18:30;20.98;;;15.55;;
24547;SDS011;12713;51.624;4.924;2022-11-20T01:20:59;21.38;;;15.57;;
24547;SDS011;12713;51.624;4.924;2022-11-20T01:23:27;18.95;;;14.70;;
24547;SDS011;12713;51.624;4.924;2022-11-20T01:25:55;22.85;;;15.93;;
24547;SDS011;12713;51.624;4.924;2022-11-20T01:28:21;21.50;;;16.48;;
24547;SDS011;12713;51.624;4.924;2022-11-20T01:30:47;22.20;;;15.75;;
24547;SDS011;12713;51.624;4.924;2022-11-20T01:33:13;21.70;;;15.13;;
24547;SDS011;12713;51.624;4.924;2022-11-20T01:35:39;21.48;;;14.98;;
24547;SDS011;12713;51.624;4.924;2022-11-20T01:38:05;22.20;;;15.02;;
24547;SDS011;12713;51.624;4.924;2022-11-20T01:40:31;25.45;;;17.25;;
24547;SDS011;12713;51.624;4.924;2022-11-20T01:43:39;27.17;;;17.08;;
24547;SDS011;12713;51.624;4.924;2022-11-20T01:48:12;22.42;;;15.55;;
24547;SDS011;12713;51.624;4.924;2022-11-20T01:50:39;22.00;;;15.70;;
24547;SDS011;12713;51.624;4.924;2022-11-20T01:53:07;23.88;;;16.23;;
24547;SDS011;12713;51.624;4.924;2022-11-20T01:55:41;24.52;;;16.58;;
24547;SDS011;12713;51.624;4.924;2022-11-20T01:58:09;25.80;;;17.33;;
24547;SDS011;12713;51.624;4.924;2022-11-20T02:00:36;25.75;;;17.63;;
24547;SDS011;12713;51.624;4.924;2022-11-20T02:03:12;24.25;;;16.48;;
24547;SDS011;12713;51.624;4.924;2022-11-20T02:06:01;25.73;;;17.35;;
24547;SDS011;12713;51.624;4.924;2022-11-20T02:08:29;22.33;;;15.88;;
24547;SDS011;12713;51.624;4.924;2022-11-20T02:10:56;24.45;;;16.40;;
24547;SDS011;12713;51.624;4.924;2022-11-20T02:13:22;23.85;;;16.50;;
24547;SDS011;12713;51.624;4.924;2022-11-20T02:16:08;25.17;;;16.58;;
24547;SDS011;12713;51.624;4.924;2022-11-20T02:18:35;23.48;;;17.08;;
24547;SDS011;12713;51.624;4.924;2022-11-20T02:21:06;25.63;;;17.60;;
24547;SDS011;12713;51.624;4.924;2022-11-20T02:23:35;25.88;;;17.77;;
24547;SDS011;12713;51.624;4.924;2022-11-20T02:26:03;25.40;;;17.10;;
24547;SDS011;12713;51.624;4.924;2022-11-20T02:28:30;25.52;;;17.92;;
24547;SDS011;12713;51.624;4.924;2022-11-20T02:30:56;24.50;;;17.48;;
24547;SDS011;12713;51.624;4.924;2022-11-20T02:33:22;28.35;;;17.27;;
24547;SDS011;12713;51.624;4.924;2022-11-20T02:35:48;23.05;;;16.55;;
24547;SDS011;12713;51.624;4.924;2022-11-20T02:38:14;26.42;;;18.60;;
24547;SDS011;12713;51.624;4.924;2022-11-20T02:40:41;27.05;;;17.45;;
24547;SDS011;12713;51.624;4.924;2022-11-20T02:43:07;25.00;;;17.35;;
24547;SDS011;12713;51.624;4.924;2022-11-20T02:45:33;25.52;;;17.90;;
24547;SDS011;12713;51.624;4.924;2022-11-20T02:47:59;26.05;;;17.15;;
24547;SDS011;12713;51.624;4.924;2022-11-20T02:50:25;27.67;;;17.55;;
24547;SDS011;12713;51.624;4.924;2022-11-20T02:52:51;24.73;;;17.08;;
24547;SDS011;12713;51.624;4.924;2022-11-20T02:55:17;25.55;;;16.90;;
24547;SDS011;12713;51.624;4.924;2022-11-20T02:57:43;23.55;;;17.15;;
24547;SDS011;12713;51.624;4.924;2022-11-20T03:00:09;25.75;;;16.60;;
24547;SDS011;12713;51.624;4.924;2022-11-20T03:02:35;26.88;;;17.17;;
24547;SDS011;12713;51.624;4.924;2022-11-20T03:05:01;25.20;;;16.08;;
24547;SDS011;12713;51.624;4.924;2022-11-20T03:07:30;24.38;;;16.58;;
24547;SDS011;12713;51.624;4.924;2022-11-20T03:09:56;23.55;;;16.33;;
24547;SDS011;12713;51.624;4.924;2022-11-20T03:12:22;24.90;;;17.92;;
24547;SDS011;12713;51.624;4.924;2022-11-20T03:14:48;25.63;;;17.02;;
24547;SDS011;12713;51.624;4.924;2022-11-20T03:17:14;23.38;;;16.40;;
24547;SDS011;12713;51.624;4.924;2022-11-20T03:19:41;25.85;;;16.48;;
24547;SDS011;12713;51.624;4.924;2022-11-20T03:22:07;27.20;;;17.52;;
24547;SDS011;12713;51.624;4.924;2022-11-20T03:24:33;27.33;;;17.25;;
24547;SDS011;12713;51.624;4.924;2022-11-20T03:26:59;24.27;;;17.05;;
24547;SDS011;12713;51.624;4.924;2022-11-20T03:29:25;24.83;;;18.02;;
24547;SDS011;12713;51.624;4.924;2022-11-20T03:31:51;24.50;;;17.02;;
24547;SDS011;12713;51.624;4.924;2022-11-20T03:34:17;25.90;;;17.48;;
24547;SDS011;12713;51.624;4.924;2022-11-20T03:36:43;25.83;;;17.30;;
24547;SDS011;12713;51.624;4.924;2022-11-20T03:39:09;25.58;;;17.27;;
24547;SDS011;12713;51.624;4.924;2022-11-20T03:41:36;24.67;;;16.23;;
24547;SDS011;12713;51.624;4.924;2022-11-20T03:44:03;26.23;;;16.92;;
24547;SDS011;12713;51.624;4.924;2022-11-20T03:46:29;28.00;;;18.52;;
24547;SDS011;12713;51.624;4.924;2022-11-20T03:48:55;24.50;;;16.67;;
24547;SDS011;12713;51.624;4.924;2022-11-20T03:53:48;25.10;;;17.02;;
24547;SDS011;12713;51.624;4.924;2022-11-20T03:56:15;23.20;;;15.98;;
24547;SDS011;12713;51.624;4.924;2022-11-20T03:58:42;25.10;;;17.83;;
24547;SDS011;12713;51.624;4.924;2022-11-20T04:01:09;25.27;;;16.83;;
24547;SDS011;12713;51.624;4.924;2022-11-20T04:03:35;25.55;;;16.75;;
24547;SDS011;12713;51.624;4.924;2022-11-20T04:06:05;24.20;;;16.35;;
24547;SDS011;12713;51.624;4.924;2022-11-20T04:08:31;21.88;;;15.73;;
24547;SDS011;12713;51.624;4.924;2022-11-20T04:11:07;23.38;;;16.73;;
24547;SDS011;12713;51.624;4.924;2022-11-20T04:13:37;28.15;;;17.38;;
24547;SDS011;12713;51.624;4.924;2022-11-20T04:16:13;27.10;;;17.38;;
24547;SDS011;12713;51.624;4.924;2022-11-20T04:18:39;24.98;;;16.77;;
24547;SDS011;12713;51.624;4.924;2022-11-20T04:21:06;26.35;;;18.23;;
24547;SDS011;12713;51.624;4.924;2022-11-20T04:23:32;26.25;;;17.83;;
24547;SDS011;12713;51.624;4.924;2022-11-20T04:26:05;25.48;;;18.48;;
24547;SDS011;12713;51.624;4.924;2022-11-20T04:28:32;25.05;;;18.15;;
24547;SDS011;12713;51.624;4.924;2022-11-20T04:31:02;24.17;;;16.50;;
24547;SDS011;12713;51.624;4.924;2022-11-20T04:33:28;24.60;;;17.58;;
24547;SDS011;12713;51.624;4.924;2022-11-20T04:35:54;23.30;;;17.38;;
24547;SDS011;12713;51.624;4.924;2022-11-20T04:38:20;25.02;;;17.00;;
24547;SDS011;12713;51.624;4.924;2022-11-20T04:40:46;24.38;;;17.60;;
24547;SDS011;12713;51.624;4.924;2022-11-20T04:43:12;26.38;;;17.67;;
24547;SDS011;12713;51.624;4.924;2022-11-20T04:45:38;28.05;;;17.75;;
24547;SDS011;12713;51.624;4.924;2022-11-20T04:48:04;23.48;;;16.65;;
24547;SDS011;12713;51.624;4.924;2022-11-20T04:50:30;25.63;;;16.83;;
24547;SDS011;12713;51.624;4.924;2022-11-20T04:52:56;23.83;;;16.83;;
24547;SDS011;12713;51.624;4.924;2022-11-20T04:55:22;26.83;;;17.27;;
24547;SDS011;12713;51.624;4.924;2022-11-20T04:57:49;25.40;;;16.98;;
24547;SDS011;12713;51.624;4.924;2022-11-20T05:00:16;23.80;;;16.98;;
24547;SDS011;12713;51.624;4.924;2022-11-20T05:02:42;24.63;;;17.55;;
24547;SDS011;12713;51.624;4.924;2022-11-20T05:05:08;25.58;;;17.13;;
24547;SDS011;12713;51.624;4.924;2022-11-20T05:07:34;24.40;;;16.88;;
24547;SDS011;12713;51.624;4.924;2022-11-20T05:10:00;24.17;;;17.52;;
24547;SDS011;12713;51.624;4.924;2022-11-20T05:12:26;25.17;;;16.88;;
24547;SDS011;12713;51.624;4.924;2022-11-20T05:14:53;22.67;;;16.50;;
24547;SDS011;12713;51.624;4.924;2022-11-20T05:17:19;25.33;;;17.23;;
24547;SDS011;12713;51.624;4.924;2022-11-20T05:19:45;28.40;;;17.67;;
24547;SDS011;12713;51.624;4.924;2022-11-20T05:22:11;22.85;;;15.82;;
24547;SDS011;12713;51.624;4.924;2022-11-20T05:24:37;23.92;;;17.20;;
24547;SDS011;12713;51.624;4.924;2022-11-20T05:27:03;23.60;;;16.05;;
24547;SDS011;12713;51.624;4.924;2022-11-20T05:29:29;26.02;;;16.45;;
24547;SDS011;12713;51.624;4.924;2022-11-20T05:31:55;27.52;;;17.65;;
24547;SDS011;12713;51.624;4.924;2022-11-20T05:34:21;27.98;;;17.10;;
24547;SDS011;12713;51.624;4.924;2022-11-20T05:36:47;24.88;;;16.58;;
24547;SDS011;12713;51.624;4.924;2022-11-20T05:39:13;26.88;;;17.42;;
24547;SDS011;12713;51.624;4.924;2022-11-20T05:41:39;25.20;;;17.15;;
24547;SDS011;12713;51.624;4.924;2022-11-20T05:44:05;24.95;;;16.77;;
24547;SDS011;12713;51.624;4.924;2022-11-20T05:46:31;26.42;;;17.10;;
24547;SDS011;12713;51.624;4.924;2022-11-20T05:48:57;28.25;;;16.92;;
24547;SDS011;12713;51.624;4.924;2022-11-20T05:51:24;25.38;;;17.05;;
24547;SDS011;12713;51.624;4.924;2022-11-20T05:53:53;25.77;;;16.70;;
24547;SDS011;12713;51.624;4.924;2022-11-20T05:56:19;23.10;;;17.10;;
24547;SDS011;12713;51.624;4.924;2022-11-20T05:58:46;24.85;;;16.95;;
24547;SDS011;12713;51.624;4.924;2022-11-20T06:01:16;26.00;;;17.45;;
24547;SDS011;12713;51.624;4.924;2022-11-20T06:03:43;26.98;;;17.48;;
24547;SDS011;12713;51.624;4.924;2022-11-20T06:06:12;24.17;;;17.52;;
24547;SDS011;12713;51.624;4.924;2022-11-20T06:08:38;26.67;;;17.63;;
24547;SDS011;12713;51.624;4.924;2022-11-20T06:11:06;26.98;;;17.23;;
24547;SDS011;12713;51.624;4.924;2022-11-20T06:13:32;22.70;;;15.98;;
24547;SDS011;12713;51.624;4.924;2022-11-20T06:15:58;27.55;;;18.25;;
24547;SDS011;12713;51.624;4.924;2022-11-20T06:18:25;26.83;;;16.73;;
24547;SDS011;12713;51.624;4.924;2022-11-20T06:20:59;27.23;;;17.75;;
24547;SDS011;12713;51.624;4.924;2022-11-20T06:23:25;25.55;;;17.75;;
24547;SDS011;12713;51.624;4.924;2022-11-20T06:25:51;30.17;;;18.48;;
24547;SDS011;12713;51.624;4.924;2022-11-20T06:28:17;25.17;;;18.15;;
24547;SDS011;12713;51.624;4.924;2022-11-20T06:30:46;25.88;;;17.27;;
24547;SDS011;12713;51.624;4.924;2022-11-20T06:33:12;24.88;;;17.70;;
24547;SDS011;12713;51.624;4.924;2022-11-20T06:35:38;28.08;;;17.58;;
24547;SDS011;12713;51.624;4.924;2022-11-20T06:38:06;32.30;;;17.83;;
24547;SDS011;12713;51.624;4.924;2022-11-20T06:40:32;29.52;;;18.73;;
24547;SDS011;12713;51.624;4.924;2022-11-20T06:42:58;28.35;;;17.67;;
24547;SDS011;12713;51.624;4.924;2022-11-20T06:45:24;26.17;;;17.92;;
24547;SDS011;12713;51.624;4.924;2022-11-20T06:47:50;32.25;;;16.52;;
24547;SDS011;12713;51.624;4.924;2022-11-20T06:50:16;24.08;;;16.90;;
24547;SDS011;12713;51.624;4.924;2022-11-20T06:52:42;24.98;;;17.50;;
24547;SDS011;12713;51.624;4.924;2022-11-20T06:55:08;26.08;;;18.10;;
24547;SDS011;12713;51.624;4.924;2022-11-20T06:57:34;25.13;;;17.00;;
24547;SDS011;12713;51.624;4.924;2022-11-20T07:00:00;63.42;;;43.58;;
24547;SDS011;12713;51.624;4.924;2022-11-20T07:02:27;41.17;;;28.25;;
24547;SDS011;12713;51.624;4.924;2022-11-20T07:04:53;31.10;;;21.08;;
24547;SDS011;12713;51.624;4.924;2022-11-20T07:07:19;28.88;;;18.50;;
24547;SDS011;12713;51.624;4.924;2022-11-20T07:09:45;30.42;;;18.45;;
24547;SDS011;12713;51.624;4.924;2022-11-20T07:12:11;26.55;;;18.52;;
24547;SDS011;12713;51.624;4.924;2022-11-20T07:14:37;24.77;;;17.60;;
24547;SDS011;12713;51.624;4.924;2022-11-20T07:17:03;26.35;;;16.73;;
24547;SDS011;12713;51.624;4.924;2022-11-20T07:19:29;27.60;;;18.85;;
24547;SDS011;12713;51.624;4.924;2022-11-20T07:21:55;26.05;;;18.90;;
24547;SDS011;12713;51.624;4.924;2022-11-20T07:24:21;31.65;;;19.63;;
24547;SDS011;12713;51.624;4.924;2022-11-20T07:26:47;30.25;;;19.45;;
24547;SDS011;12713;51.624;4.924;2022-11-20T07:29:14;29.60;;;19.67;;
24547;SDS011;12713;51.624;4.924;2022-11-20T07:31:40;28.67;;;20.88;;
24547;SDS011;12713;51.624;4.924;2022-11-20T07:34:06;27.98;;;19.15;;
24547;SDS011;12713;51.624;4.924;2022-11-20T07:36:32;26.23;;;18.52;;
24547;SDS011;12713;51.624;4.924;2022-11-20T07:38:58;33.60;;;20.10;;
24547;SDS011;12713;51.624;4.924;2022-11-20T07:41:25;29.00;;;19.65;;
24547;SDS011;12713;51.624;4.924;2022-11-20T07:43:52;30.75;;;20.13;;
24547;SDS011;12713;51.624;4.924;2022-11-20T07:46:18;27.48;;;19.42;;
24547;SDS011;12713;51.624;4.924;2022-11-20T07:48:44;27.50;;;17.90;;
24547;SDS011;12713;51.624;4.924;2022-11-20T07:51:10;27.90;;;20.08;;
24547;SDS011;12713;51.624;4.924;2022-11-20T07:53:36;28.10;;;18.42;;
24547;SDS011;12713;51.624;4.924;2022-11-20T07:56:02;34.67;;;20.65;;
24547;SDS011;12713;51.624;4.924;2022-11-20T07:58:29;34.33;;;20.85;;
24547;SDS011;12713;51.624;4.924;2022-11-20T08:00:57;33.22;;;21.08;;
24547;SDS011;12713;51.624;4.924;2022-11-20T08:03:23;29.13;;;21.70;;
24547;SDS011;12713;51.624;4.924;2022-11-20T08:05:50;26.90;;;19.83;;
24547;SDS011;12713;51.624;4.924;2022-11-20T08:08:15;31.88;;;21.67;;
24547;SDS011;12713;51.624;4.924;2022-11-20T08:10:41;28.05;;;20.48;;
24547;SDS011;12713;51.624;4.924;2022-11-20T08:13:08;34.33;;;22.92;;
24547;SDS011;12713;51.624;4.924;2022-11-20T08:15:53;29.38;;;20.48;;
24547;SDS011;12713;51.624;4.924;2022-11-20T08:18:19;28.73;;;20.75;;
24547;SDS011;12713;51.624;4.924;2022-11-20T08:20:45;27.35;;;19.45;;
24547;SDS011;12713;51.624;4.924;2022-11-20T08:23:11;31.13;;;20.83;;
24547;SDS011;12713;51.624;4.924;2022-11-20T08:25:37;32.58;;;20.63;;
24547;SDS011;12713;51.624;4.924;2022-11-20T08:28:05;29.55;;;20.13;;
24547;SDS011;12713;51.624;4.924;2022-11-20T08:30:31;29.48;;;21.05;;
24547;SDS011;12713;51.624;4.924;2022-11-20T08:33:05;32.30;;;21.77;;
24547;SDS011;12713;51.624;4.924;2022-11-20T08:35:34;31.50;;;20.73;;
24547;SDS011;12713;51.624;4.924;2022-11-20T08:38:01;30.25;;;19.70;;
24547;SDS011;12713;51.624;4.924;2022-11-20T08:40:27;34.08;;;21.60;;
24547;SDS011;12713;51.624;4.924;2022-11-20T08:42:53;30.63;;;21.45;;
24547;SDS011;12713;51.624;4.924;2022-11-20T08:45:19;27.00;;;19.77;;
24547;SDS011;12713;51.624;4.924;2022-11-20T08:47:45;30.13;;;20.95;;
24547;SDS011;12713;51.624;4.924;2022-11-20T08:50:12;31.08;;;21.55;;
24547;SDS011;12713;51.624;4.924;2022-11-20T08:52:38;29.92;;;20.08;;
24547;SDS011;12713;51.624;4.924;2022-11-20T08:55:05;28.25;;;20.05;;
24547;SDS011;12713;51.624;4.924;2022-11-20T08:57:32;29.20;;;20.92;;
24547;SDS011;12713;51.624;4.924;2022-11-20T08:59:58;30.48;;;20.45;;
24547;SDS011;12713;51.624;4.924;2022-11-20T09:02:24;30.55;;;20.33;;
24547;SDS011;12713;51.624;4.924;2022-11-20T09:04:50;28.83;;;21.98;;
24547;SDS011;12713;51.624;4.924;2022-11-20T09:07:16;32.90;;;22.13;;
24547;SDS011;12713;51.624;4.924;2022-11-20T09:09:42;33.60;;;22.33;;
24547;SDS011;12713;51.624;4.924;2022-11-20T09:12:08;32.17;;;22.38;;
24547;SDS011;12713;51.624;4.924;2022-11-20T09:14:34;27.70;;;20.23;;
24547;SDS011;12713;51.624;4.924;2022-11-20T09:17:00;30.80;;;21.83;;
24547;SDS011;12713;51.624;4.924;2022-11-20T09:19:26;50.40;;;32.13;;
24547;SDS011;12713;51.624;4.924;2022-11-20T09:21:52;49.95;;;34.10;;
24547;SDS011;12713;51.624;4.924;2022-11-20T09:24:18;45.53;;;30.13;;
24547;SDS011;12713;51.624;4.924;2022-11-20T09:26:46;62.33;;;40.20;;
24547;SDS011;12713;51.624;4.924;2022-11-20T09:29:12;42.80;;;28.90;;
24547;SDS011;12713;51.624;4.924;2022-11-20T09:31:38;35.55;;;25.08;;
24547;SDS011;12713;51.624;4.924;2022-11-20T09:34:04;47.28;;;31.73;;
24547;SDS011;12713;51.624;4.924;2022-11-20T09:36:30;39.42;;;25.98;;
24547;SDS011;12713;51.624;4.924;2022-11-20T09:38:56;40.85;;;25.02;;
24547;SDS011;12713;51.624;4.924;2022-11-20T09:45:02;45.85;;;28.80;;
24547;SDS011;12713;51.624;4.924;2022-11-20T09:46:54;49.20;;;32.67;;
24547;SDS011;12713;51.624;4.924;2022-11-20T09:54:41;45.63;;;28.00;;
24547;SDS011;12713;51.624;4.924;2022-11-20T09:57:14;41.95;;;25.95;;
24547;SDS011;12713;51.624;4.924;2022-11-20T09:59:49;50.88;;;29.20;;
24547;SDS011;12713;51.624;4.924;2022-11-20T10:07:33;48.28;;;30.75;;
24547;SDS011;12713;51.624;4.924;2022-11-20T10:10:02;49.75;;;28.52;;
24547;SDS011;12713;51.624;4.924;2022-11-20T10:12:33;69.90;;;44.25;;
24547;SDS011;12713;51.624;4.924;2022-11-20T10:20:09;49.97;;;28.20;;
24547;SDS011;12713;51.624;4.924;2022-11-20T10:22:48;48.88;;;30.52;;
24547;SDS011;12713;51.624;4.924;2022-11-20T10:25:18;46.15;;;28.45;;
24547;SDS011;12713;51.624;4.924;2022-11-20T10:28:04;49.65;;;29.90;;
24547;SDS011;12713;51.624;4.924;2022-11-20T10:30:35;63.50;;;36.40;;
24547;SDS011;12713;51.624;4.924;2022-11-20T10:33:11;49.47;;;30.85;;
24547;SDS011;12713;51.624;4.924;2022-11-20T10:36:26;50.47;;;30.33;;
24547;SDS011;12713;51.624;4.924;2022-11-20T10:38:26;52.85;;;32.38;;
24547;SDS011;12713;51.624;4.924;2022-11-20T10:41:06;58.47;;;36.63;;
24547;SDS011;12713;51.624;4.924;2022-11-20T10:43:56;63.97;;;36.58;;
24547;SDS011;12713;51.624;4.924;2022-11-20T10:46:29;94.80;;;55.00;;
24547;SDS011;12713;51.624;4.924;2022-11-20T10:48:57;86.35;;;49.92;;
24547;SDS011;12713;51.624;4.924;2022-11-20T10:54:23;57.70;;;34.50;;
24547;SDS011;12713;51.624;4.924;2022-11-20T10:56:56;57.83;;;34.65;;
24547;SDS011;12713;51.624;4.924;2022-11-20T11:01:59;55.10;;;32.85;;
24547;SDS011;12713;51.624;4.924;2022-11-20T11:04:40;50.60;;;30.40;;
24547;SDS011;12713;51.624;4.924;2022-11-20T11:10:18;54.90;;;32.45;;
24547;SDS011;12713;51.624;4.924;2022-11-20T11:12:52;58.13;;;34.17;;
24547;SDS011;12713;51.624;4.924;2022-11-20T11:21:21;60.78;;;33.42;;
24547;SDS011;12713;51.624;4.924;2022-11-20T11:23:48;60.05;;;32.90;;
24547;SDS011;12713;51.624;4.924;2022-11-20T11:26:30;63.55;;;35.35;;
24547;SDS011;12713;51.624;4.924;2022-11-20T11:29:04;61.67;;;34.88;;
24547;SDS011;12713;51.624;4.924;2022-11-20T11:31:31;63.90;;;36.30;;
24547;SDS011;12713;51.624;4.924;2022-11-20T11:34:18;66.57;;;36.38;;
24547;SDS011;12713;51.624;4.924;2022-11-20T11:36:52;66.25;;;38.10;;
24547;SDS011;12713;51.624;4.924;2022-11-20T11:39:20;65.22;;;37.78;;
24547;SDS011;12713;51.624;4.924;2022-11-20T11:41:52;71.53;;;40.25;;
24547;SDS011;12713;51.624;4.924;2022-11-20T11:44:23;71.35;;;38.50;;
24547;SDS011;12713;51.624;4.924;2022-11-20T11:49:47;74.60;;;39.67;;
24547;SDS011;12713;51.624;4.924;2022-11-20T11:52:17;78.60;;;39.80;;
24547;SDS011;12713;51.624;4.924;2022-11-20T12:00:24;71.50;;;39.08;;
24547;SDS011;12713;51.624;4.924;2022-11-20T12:05:55;69.32;;;38.70;;
24547;SDS011;12713;51.624;4.924;2022-11-20T12:08:48;78.75;;;39.75;;
24547;SDS011;12713;51.624;4.924;2022-11-20T12:14:40;75.57;;;40.97;;
24547;SDS011;12713;51.624;4.924;2022-11-20T12:19:56;76.97;;;38.63;;
24547;SDS011;12713;51.624;4.924;2022-11-20T12:25:31;84.28;;;42.45;;
24547;SDS011;12713;51.624;4.924;2022-11-20T12:38:50;72.73;;;38.07;;
24547;SDS011;12713;51.624;4.924;2022-11-20T12:47:19;77.03;;;36.97;;
24547;SDS011;12713;51.624;4.924;2022-11-20T12:50:02;80.07;;;38.42;;
24547;SDS011;12713;51.624;4.924;2022-11-20T12:52:43;79.85;;;37.63;;
24547;SDS011;12713;51.624;4.924;2022-11-20T12:55:32;78.22;;;36.00;;
24547;SDS011;12713;51.624;4.924;2022-11-20T13:00:34;90.28;;;38.15;;
24547;SDS011;12713;51.624;4.924;2022-11-20T13:05:59;79.05;;;36.25;;
24547;SDS011;12713;51.624;4.924;2022-11-20T13:08:32;77.80;;;36.45;;
24547;SDS011;12713;51.624;4.924;2022-11-20T13:11:17;79.72;;;36.15;;
24547;SDS011;12713;51.624;4.924;2022-11-20T13:19:17;77.03;;;36.17;;
24547;SDS011;12713;51.624;4.924;2022-11-20T13:21:47;79.38;;;35.10;;
24547;SDS011;12713;51.624;4.924;2022-11-20T13:24:23;81.05;;;38.70;;
24547;SDS011;12713;51.624;4.924;2022-11-20T13:29:44;91.47;;;46.15;;
24547;SDS011;12713;51.624;4.924;2022-11-20T13:34:39;84.07;;;41.03;;
24547;SDS011;12713;51.624;4.924;2022-11-20T13:37:05;87.30;;;40.40;;
24547;SDS011;12713;51.624;4.924;2022-11-20T13:39:35;82.85;;;38.53;;
24547;SDS011;12713;51.624;4.924;2022-11-20T13:42:54;77.70;;;35.92;;
24547;SDS011;12713;51.624;4.924;2022-11-20T13:44:50;89.47;;;40.28;;
24547;SDS011;12713;51.624;4.924;2022-11-20T13:47:19;79.75;;;37.65;;
24547;SDS011;12713;51.624;4.924;2022-11-20T13:49:47;87.43;;;40.13;;
24547;SDS011;12713;51.624;4.924;2022-11-20T14:00:57;87.60;;;38.95;;
24547;SDS011;12713;51.624;4.924;2022-11-20T14:03:24;85.68;;;38.88;;
24547;SDS011;12713;51.624;4.924;2022-11-20T14:06:01;87.90;;;40.73;;
24547;SDS011;12713;51.624;4.924;2022-11-20T14:08:44;97.60;;;42.67;;
24547;SDS011;12713;51.624;4.924;2022-11-20T14:13:37;89.35;;;38.17;;
24547;SDS011;12713;51.624;4.924;2022-11-20T14:16:03;96.18;;;43.28;;
24547;SDS011;12713;51.624;4.924;2022-11-20T14:18:29;96.97;;;41.15;;
24547;SDS011;12713;51.624;4.924;2022-11-20T14:20:55;94.78;;;40.50;;
24547;SDS011;12713;51.624;4.924;2022-11-20T14:23:28;94.10;;;42.55;;
24547;SDS011;12713;51.624;4.924;2022-11-20T14:28:38;93.95;;;41.15;;
24547;SDS011;12713;51.624;4.924;2022-11-20T14:31:08;97.63;;;44.28;;
24547;SDS011;12713;51.624;4.924;2022-11-20T14:33:42;98.38;;;41.53;;
24547;SDS011;12713;51.624;4.924;2022-11-20T14:36:15;96.05;;;41.15;;
24547;SDS011;12713;51.624;4.924;2022-11-20T14:38:42;108.40;;;41.35;;
24547;SDS011;12713;51.624;4.924;2022-11-20T14:41:14;104.68;;;42.78;;
24547;SDS011;12713;51.624;4.924;2022-11-20T14:43:44;107.28;;;40.55;;
24547;SDS011;12713;51.624;4.924;2022-11-20T14:46:10;102.80;;;44.65;;
24547;SDS011;12713;51.624;4.924;2022-11-20T14:48:45;96.28;;;40.33;;
24547;SDS011;12713;51.624;4.924;2022-11-20T14:51:22;101.70;;;41.58;;
24547;SDS011;12713;51.624;4.924;2022-11-20T14:53:48;106.93;;;39.53;;
24547;SDS011;12713;51.624;4.924;2022-11-20T14:56:20;93.97;;;38.63;;
24547;SDS011;12713;51.624;4.924;2022-11-20T14:58:55;118.90;;;51.45;;
24547;SDS011;12713;51.624;4.924;2022-11-20T15:01:25;109.30;;;40.28;;
24547;SDS011;12713;51.624;4.924;2022-11-20T15:03:58;100.90;;;42.22;;
24547;SDS011;12713;51.624;4.924;2022-11-20T15:06:25;98.32;;;42.63;;
24547;SDS011;12713;51.624;4.924;2022-11-20T15:08:51;109.88;;;43.25;;
24547;SDS011;12713;51.624;4.924;2022-11-20T15:11:18;99.47;;;39.35;;
24547;SDS011;12713;51.624;4.924;2022-11-20T15:13:45;105.35;;;40.05;;
24547;SDS011;12713;51.624;4.924;2022-11-20T15:16:18;98.03;;;40.20;;
24547;SDS011;12713;51.624;4.924;2022-11-20T15:18:47;112.60;;;42.40;;
24547;SDS011;12713;51.624;4.924;2022-11-20T15:21:14;99.30;;;37.67;;
24547;SDS011;12713;51.624;4.924;2022-11-20T15:23:40;104.15;;;38.45;;
24547;SDS011;12713;51.624;4.924;2022-11-20T15:26:09;93.38;;;36.88;;
24547;SDS011;12713;51.624;4.924;2022-11-20T15:28:37;88.00;;;35.53;;
24547;SDS011;12713;51.624;4.924;2022-11-20T15:31:05;95.97;;;36.13;;
24547;SDS011;12713;51.624;4.924;2022-11-20T15:33:32;91.95;;;37.92;;
24547;SDS011;12713;51.624;4.924;2022-11-20T15:35:58;94.90;;;39.72;;
24547;SDS011;12713;51.624;4.924;2022-11-20T15:38:24;95.40;;;37.25;;
24547;SDS011;12713;51.624;4.924;2022-11-20T15:40:50;86.40;;;34.45;;
24547;SDS011;12713;51.624;4.924;2022-11-20T15:43:16;103.20;;;39.95;;
24547;SDS011;12713;51.624;4.924;2022-11-20T15:45:45;96.05;;;34.92;;
24547;SDS011;12713;51.624;4.924;2022-11-20T15:48:13;88.78;;;35.92;;
24547;SDS011;12713;51.624;4.924;2022-11-20T15:50:49;75.97;;;31.63;;
24547;SDS011;12713;51.624;4.924;2022-11-20T15:53:16;91.43;;;36.95;;
24547;SDS011;12713;51.624;4.924;2022-11-20T15:55:48;79.22;;;33.55;;
24547;SDS011;12713;51.624;4.924;2022-11-20T15:58:15;71.72;;;31.75;;
24547;SDS011;12713;51.624;4.924;2022-11-20T16:00:44;101.60;;;43.30;;
24547;SDS011;12713;51.624;4.924;2022-11-20T16:03:13;81.80;;;36.45;;
24547;SDS011;12713;51.624;4.924;2022-11-20T16:05:39;77.78;;;32.78;;
24547;SDS011;12713;51.624;4.924;2022-11-20T16:08:05;71.13;;;29.80;;
24547;SDS011;12713;51.624;4.924;2022-11-20T16:10:32;65.63;;;30.48;;
24547;SDS011;12713;51.624;4.924;2022-11-20T16:12:58;76.18;;;30.20;;
24547;SDS011;12713;51.624;4.924;2022-11-20T16:15:43;68.75;;;26.67;;
24547;SDS011;12713;51.624;4.924;2022-11-20T16:18:11;55.35;;;27.42;;